This is the latest recevied weather packets stored in our database for station/object N7UV-WX. If no packets are shown the sender has not sent any weather packets the latest 10 day(s).
| Time | Temp. | Humidity | Pressure | Rain* | Wind** | Luminosity | Snow |
|---|---|---|---|---|---|---|---|
| 1777914919 | 20° C | 52% | 1010.4 hPa | 0 mm | - | 246 W/m² | - |
| 1777908318 | 21.11° C | 41% | 1010.4 hPa | 0 mm | - | 194 W/m² | - |
| 1777906553 | 21.67° C | 37% | 1010.1 hPa | 0 mm | - | 132 W/m² | - |
| 1777905918 | 21.67° C | 38% | 1009.8 hPa | 0 mm | - | 142 W/m² | - |
| 1777905335 | 21.67° C | 37% | 1009.7 hPa | 0 mm | - | 111 W/m² | - |
| 1777904719 | 21.67° C | 37% | 1009.6 hPa | 0 mm | - | 91 W/m² | - |
| 1777902318 | 22.22° C | 38% | 1009.5 hPa | 0 mm | - | 47 W/m² | - |
| 1777900520 | 22.22° C | 37% | 1009.5 hPa | 0 mm | - | 18 W/m² | - |
| 1777899919 | 22.22° C | 37% | 1009.6 hPa | 0 mm | - | 11 W/m² | - |
| 1777898720 | 22.22° C | 37% | 1009.3 hPa | 0 mm | - | 0 W/m² | - |
| 1777895120 | 22.78° C | 35% | 1008.9 hPa | 0 mm | - | 0 W/m² | - |
| 1777889759 | 22.78° C | 35% | 1009 hPa | 0 mm | - | 0 W/m² | - |
| 1777888520 | 23.33° C | 35% | 1009 hPa | 0 mm | - | 0 W/m² | - |
| 1777880120 | 25° C | 27% | 1008.5 hPa | 0 mm | - | 0 W/m² | - |
| 1777879519 | 25° C | 26% | 1008.5 hPa | 0 mm | - | 0 W/m² | - |
| 1777875919 | 25° C | 27% | 1007.8 hPa | 0 mm | - | 0 W/m² | - |
| 1777874754 | 25.56° C | 26% | 1007.7 hPa | 0 mm | - | 0 W/m² | - |
| 1777869319 | 26.67° C | 19% | 1007.8 hPa | 0 mm | - | 0 W/m² | - |
| 1777868739 | 27.22° C | 19% | 1007.7 hPa | 0 mm | - | 0 W/m² | - |
| 1777865139 | 28.33° C | 16% | 1006.3 hPa | 0 mm | - | 0 W/m² | - |
| 1777862160 | 29.44° C | 13% | 1005.3 hPa | 0 mm | - | 0 W/m² | - |
| 1777859733 | 30.56° C | 15% | 1004.6 hPa | 0 mm | - | 23 W/m² | - |
| 1777859120 | 30.56° C | 15% | 1004.5 hPa | 0 mm | - | 53 W/m² | - |
| 1777856720 | 31.67° C | 13% | 1004.7 hPa | 0 mm | - | 188 W/m² | - |
| 1777852522 | 33.33° C | 11% | 1004.3 hPa | 0 mm | - | 475 W/m² | - |
* Rain latest hour (hover to see other rain measurements)
** Current wind speed in m/s (hover to see current wind gust speed)